Terminal Aerodrome Forecast
Issued by NWS North Platte, NE

Home | Current Version | Previous Version | Text Only | Print | Product List | Glossary On
Versions: 1 2 3 4 5 6 7 8 9 10 11 12 13 14 15 16 17 18 19 20
000
FTUS43 KLBF 272107 AAA
TAFVTN
TAF AMD
KVTN 272107Z 2721/2818 17005KT P6SM SCT100
     FM272200 13009KT P6SM BKN100
     FM280600 13009KT P6SM OVC012
     FM281000 13010KT 5SM -RA BR OVC009
     FM281400 13010KT 3SM -RA BR OVC007=

USA.gov is the U.S. government's official web portal to all federal, state and local government web resources and services.